createdAt,value
2022-09-23T00:00:59.755Z,101287.88
2022-09-23T00:03:32.550Z,101283.47
2022-09-23T00:06:10.664Z,101285.25
2022-09-23T00:08:42.162Z,101272.97
2022-09-23T00:11:16.370Z,101271.22
2022-09-23T00:13:50.611Z,101279.16
2022-09-23T00:16:25.397Z,101276.50
2022-09-23T00:18:57.047Z,101274.75
2022-09-23T00:21:28.586Z,101266.81
2022-09-23T00:23:59.884Z,101270.41
2022-09-23T00:26:31.142Z,101251.03
2022-09-23T00:29:02.489Z,101262.53
2022-09-23T00:31:33.774Z,101263.47
2022-09-23T00:34:05.033Z,101270.47
2022-09-23T00:36:36.294Z,101275.81
2022-09-23T00:39:07.687Z,101272.31
2022-09-23T00:41:39.445Z,101267.00
2022-09-23T00:44:59.235Z,101259.09
2022-09-23T00:47:44.497Z,101266.19
2022-09-23T00:50:27.087Z,101255.59
2022-09-23T00:53:01.884Z,101255.63
2022-09-23T00:55:39.095Z,101235.31
2022-09-23T00:58:14.838Z,101238.88
2022-09-23T01:00:46.846Z,101253.84
2022-09-23T01:03:19.606Z,101252.06
2022-09-23T01:05:52.169Z,101230.84
2022-09-23T01:08:24.828Z,101242.16
2022-09-23T01:11:02.746Z,101236.75
2022-09-23T01:13:49.842Z,101223.44
2022-09-23T01:16:54.655Z,101233.94
2022-09-23T01:19:56.935Z,101224.16
2022-09-23T01:22:44.305Z,101209.97
2022-09-23T01:25:36.709Z,101213.41
2022-09-23T01:28:33.272Z,101219.53
2022-09-23T01:31:10.399Z,101208.88
2022-09-23T01:34:02.118Z,101216.81
2022-09-23T01:36:42.782Z,101207.94
2022-09-23T01:39:28.030Z,101207.91
2022-09-23T01:42:25.681Z,101192.06
2022-09-23T01:45:07.052Z,101202.59
2022-09-23T01:47:54.926Z,101191.13
2022-09-23T01:50:50.405Z,101192.84
2022-09-23T01:53:28.698Z,101189.41
2022-09-23T01:56:04.490Z,101182.34
2022-09-23T01:59:02.191Z,101194.66
2022-09-23T02:01:39.161Z,101194.72
2022-09-23T02:04:17.404Z,101172.72
2022-09-23T02:06:55.417Z,101185.06
2022-09-23T02:09:35.229Z,101184.13
2022-09-23T02:12:14.692Z,101180.63
2022-09-23T02:14:53.302Z,101185.03
2022-09-23T02:17:31.910Z,101177.91
2022-09-23T02:20:06.976Z,101175.25
2022-09-23T02:22:54.852Z,101170.88
2022-09-23T02:25:39.138Z,101167.38
2022-09-23T02:28:24.146Z,101151.56
2022-09-23T02:31:08.163Z,101149.84
2022-09-23T02:33:46.279Z,101164.91
2022-09-23T02:36:46.038Z,101158.75
2022-09-23T02:39:20.602Z,101157.03
2022-09-23T02:42:00.742Z,101155.28
2022-09-23T02:44:32.886Z,101150.03
2022-09-23T02:47:04.484Z,101150.97
2022-09-23T02:49:36.489Z,101144.81
2022-09-23T02:52:07.933Z,101145.72
2022-09-23T02:54:40.506Z,101148.41
2022-09-23T02:57:11.769Z,101149.31
2022-09-23T02:59:43.637Z,101144.03
2022-09-23T03:02:44.708Z,101143.22
2022-09-23T03:05:28.020Z,101125.69
2022-09-23T03:08:18.894Z,101121.31
2022-09-23T03:11:06.826Z,101136.31
2022-09-23T03:13:46.813Z,101117.81
2022-09-23T03:16:28.292Z,101121.41
2022-09-23T03:19:17.953Z,101129.31
2022-09-23T03:21:58.462Z,101128.44
2022-09-23T03:24:34.536Z,101126.69
2022-09-23T03:27:13.735Z,101122.31
2022-09-23T03:29:48.681Z,101120.63
2022-09-23T03:32:23.503Z,101109.16
2022-09-23T03:34:59.930Z,101109.16
2022-09-23T03:37:58.756Z,101117.97
2022-09-23T03:40:35.554Z,101108.31
2022-09-23T03:43:07.642Z,101116.22
2022-09-23T03:45:39.977Z,101104.75
2022-09-23T03:48:11.281Z,101118.00
2022-09-23T03:50:42.621Z,101117.97
2022-09-23T03:53:14.093Z,101113.56
2022-09-23T03:55:46.521Z,101097.69
2022-09-23T03:58:18.045Z,101110.00
2022-09-23T04:00:49.631Z,101110.88
2022-09-23T04:03:22.287Z,101094.09
2022-09-23T04:05:53.649Z,101090.59
2022-09-23T04:08:24.958Z,101096.75
2022-09-23T04:11:01.413Z,101091.47
2022-09-23T04:13:32.758Z,101088.84
2022-09-23T04:16:04.222Z,101095.03
2022-09-23T04:18:35.562Z,101076.53
2022-09-23T04:21:06.829Z,101080.94
2022-09-23T04:23:38.259Z,101080.91
2022-09-23T04:26:09.888Z,101082.66
2022-09-23T04:28:41.334Z,101080.91
2022-09-23T04:31:12.869Z,101070.31
2022-09-23T04:33:44.213Z,101074.72
2022-09-23T04:36:15.559Z,101071.19
2022-09-23T04:38:48.616Z,101072.97
2022-09-23T04:41:21.769Z,101073.00
2022-09-23T04:43:53.210Z,101051.84
2022-09-23T04:46:24.758Z,101065.06
2022-09-23T04:48:56.710Z,101070.38
2022-09-23T04:51:28.089Z,101064.19
2022-09-23T04:53:59.429Z,101071.25
2022-09-23T04:56:34.047Z,101067.69
2022-09-23T04:59:05.641Z,101071.22
2022-09-23T05:01:38.289Z,101065.91
2022-09-23T05:04:14.240Z,101062.31
2022-09-23T05:06:45.618Z,101065.81
2022-09-23T05:09:17.810Z,101068.44
2022-09-23T05:11:49.233Z,101058.69
2022-09-23T05:14:20.745Z,101059.50
2022-09-23T05:16:52.169Z,101066.53
2022-09-23T05:19:23.529Z,101050.66
2022-09-23T05:21:55.050Z,101056.84
2022-09-23T05:24:29.220Z,101062.09
2022-09-23T05:27:02.041Z,101065.63
2022-09-23T05:29:34.780Z,101050.66
2022-09-23T05:32:06.115Z,101063.81
2022-09-23T05:34:37.479Z,101062.03
2022-09-23T05:37:08.962Z,101054.09
2022-09-23T05:39:40.250Z,101067.31
2022-09-23T05:42:12.459Z,101061.13
2022-09-23T05:44:44.090Z,101059.31
2022-09-23T05:47:15.466Z,101061.94
2022-09-23T05:49:59.008Z,101060.13
2022-09-23T05:52:31.496Z,101060.91
2022-09-23T05:55:03.049Z,101057.31
2022-09-23T05:57:34.294Z,101054.66
2022-09-23T06:00:06.124Z,101058.09
2022-09-23T06:02:37.663Z,101058.97
2022-09-23T06:05:09.095Z,101043.03
2022-09-23T06:07:40.457Z,101048.28
2022-09-23T06:10:12.133Z,101057.91
2022-09-23T06:12:44.893Z,101054.31
2022-09-23T06:15:16.885Z,101044.59
2022-09-23T06:17:51.309Z,101049.84
2022-09-23T06:20:22.734Z,101056.88
2022-09-23T06:22:55.619Z,101049.78
2022-09-23T06:25:27.572Z,101050.66
2022-09-23T06:27:59.165Z,101050.72
2022-09-23T06:30:30.765Z,101060.38
2022-09-23T06:33:02.235Z,101056.84
2022-09-23T06:35:33.758Z,101042.78
2022-09-23T06:38:05.130Z,101055.16
2022-09-23T06:40:36.572Z,101062.13
2022-09-23T06:43:08.352Z,101044.53
2022-09-23T06:45:39.593Z,101053.31
2022-09-23T06:48:11.442Z,101063.00
2022-09-23T06:50:42.694Z,101059.44
2022-09-23T06:53:14.035Z,101059.38
2022-09-23T06:55:45.383Z,101053.13
2022-09-23T06:58:16.726Z,101052.16
2022-09-23T07:00:47.994Z,101046.69
2022-09-23T07:03:19.323Z,101062.38
2022-09-23T07:05:55.189Z,101062.19
2022-09-23T07:08:27.730Z,101050.53
2022-09-23T07:11:01.816Z,101052.84
2022-09-23T07:13:33.655Z,101048.31
2022-09-23T07:16:05.301Z,101055.91
2022-09-23T07:18:37.543Z,101059.06
2022-09-23T07:21:15.448Z,101065.81
2022-09-23T07:23:50.062Z,101061.84
2022-09-23T07:26:22.718Z,101063.13
2022-09-23T07:29:04.468Z,101062.47
2022-09-23T07:31:39.489Z,101065.50
2022-09-23T07:34:11.675Z,101071.81
2022-09-23T07:36:43.166Z,101072.78
2022-09-23T07:39:14.529Z,101065.06
2022-09-23T07:41:45.789Z,101058.19
2022-09-23T07:44:19.072Z,101068.00
2022-09-23T07:46:50.598Z,101071.53
2022-09-23T07:49:22.166Z,101073.41
2022-09-23T07:51:53.793Z,101057.84
2022-09-23T07:54:29.527Z,101068.00
2022-09-23T07:57:01.074Z,101065.94
2022-09-23T07:59:32.450Z,101073.47
2022-09-23T08:02:04.418Z,101065.16
2022-09-23T08:04:36.876Z,101076.59
2022-09-23T08:07:08.998Z,101058.06
2022-09-23T08:09:42.111Z,101064.47
2022-09-23T08:12:16.521Z,101059.06
2022-09-23T08:14:47.897Z,101067.59
2022-09-23T08:17:19.199Z,101066.25
2022-09-23T08:19:50.509Z,101075.47
2022-09-23T08:22:22.000Z,101074.28
2022-09-23T08:24:55.689Z,101068.72
2022-09-23T08:27:29.260Z,101070.09
2022-09-23T08:30:00.603Z,101074.09
2022-09-23T08:32:32.060Z,101074.75
2022-09-23T08:35:03.459Z,101061.88
2022-09-23T08:37:34.722Z,101061.38
2022-09-23T08:40:06.566Z,101057.97
2022-09-23T08:42:40.694Z,101057.47
2022-09-23T08:45:20.932Z,101063.34
2022-09-23T08:48:10.816Z,101045.72
2022-09-23T08:50:59.805Z,101052.81
2022-09-23T08:53:38.060Z,101052.97
2022-09-23T08:56:18.318Z,101055.03
2022-09-23T08:59:00.016Z,101042.19
2022-09-23T09:01:51.771Z,101058.25
2022-09-23T09:04:28.264Z,101042.28
2022-09-23T09:10:23.334Z,101040.78
2022-09-23T09:13:07.505Z,101044.63
2022-09-23T09:15:55.119Z,101043.97
2022-09-23T09:18:31.056Z,101046.75
2022-09-23T09:21:09.868Z,101046.75
2022-09-23T09:23:59.512Z,101031.38
2022-09-23T09:26:34.857Z,101039.38
2022-09-23T09:29:31.262Z,101025.31
2022-09-23T09:32:22.530Z,101027.59
2022-09-23T09:34:59.669Z,101034.34
2022-09-23T09:37:35.798Z,101026.41
2022-09-23T09:40:11.768Z,101021.03
2022-09-23T09:42:46.090Z,101016.00
2022-09-23T09:45:28.367Z,101017.66
2022-09-23T09:48:10.786Z,101013.84
2022-09-23T09:50:53.902Z,101004.28
2022-09-23T09:53:35.802Z,101007.41
2022-09-23T09:56:10.072Z,100998.09
2022-09-23T09:58:48.840Z,100994.88
2022-09-23T10:01:32.384Z,100992.09
2022-09-23T10:04:06.448Z,100989.59
2022-09-23T10:06:37.878Z,100978.34
2022-09-23T10:09:19.131Z,100980.09
2022-09-23T10:12:10.663Z,100990.72
2022-09-23T10:14:42.719Z,100979.09
2022-09-23T10:17:29.936Z,100967.25
2022-09-23T10:20:09.233Z,100967.91
2022-09-23T10:22:42.426Z,100971.19
2022-09-23T10:25:20.664Z,100973.88
2022-09-23T10:27:52.436Z,100974.75
2022-09-23T10:30:27.776Z,100967.34
2022-09-23T10:32:59.201Z,100982.22
2022-09-23T10:35:34.286Z,100978.44
2022-09-23T10:38:09.010Z,100973.53
2022-09-23T10:41:01.751Z,100984.34
2022-09-23T10:44:03.793Z,100980.97
2022-09-23T10:46:41.482Z,100984.25
2022-09-23T10:49:37.978Z,100980.66
2022-09-23T10:52:39.324Z,100973.78
2022-09-23T10:55:36.113Z,100965.97
2022-09-23T10:58:27.108Z,100966.53
2022-09-23T11:01:17.250Z,100978.81
2022-09-23T11:03:51.289Z,100969.09
2022-09-23T11:07:03.390Z,100962.16
2022-09-23T11:10:03.180Z,100964.97
2022-09-23T11:12:54.644Z,100956.75
2022-09-23T11:15:38.970Z,100959.75
2022-09-23T11:18:19.363Z,100951.06
2022-09-23T11:21:20.737Z,100935.78
2022-09-23T11:24:07.399Z,100934.41
2022-09-23T11:26:48.091Z,100937.59
2022-09-23T11:29:47.430Z,100919.72
2022-09-23T11:32:39.525Z,100915.06
2022-09-23T11:35:19.286Z,100933.19
2022-09-23T11:38:25.873Z,100937.13
2022-09-23T11:41:02.348Z,100929.66
2022-09-23T11:43:39.226Z,100911.88
2022-09-23T11:46:32.830Z,100910.91
2022-09-23T11:49:16.141Z,100917.34
2022-09-23T11:52:19.490Z,100916.38
2022-09-23T11:55:00.816Z,100905.44
2022-09-23T11:57:49.048Z,100910.09
2022-09-23T12:00:23.711Z,100907.78
2022-09-23T12:03:10.120Z,100900.53
2022-09-23T12:05:47.514Z,100901.19
2022-09-23T12:08:28.954Z,100893.84
2022-09-23T12:11:23.169Z,100893.50
2022-09-23T12:14:15.522Z,100893.06
2022-09-23T12:16:55.774Z,100892.00
2022-09-23T12:19:39.665Z,100888.41
2022-09-23T12:22:37.254Z,100891.53
2022-09-23T12:25:17.714Z,100893.28
2022-09-23T12:27:55.147Z,100884.72
2022-09-23T12:30:29.781Z,100869.00
2022-09-23T12:33:22.521Z,100866.81
2022-09-23T12:36:01.880Z,100876.50
2022-09-23T12:38:37.125Z,100881.03
2022-09-23T12:41:23.961Z,100875.84
2022-09-23T12:43:59.846Z,100878.22
2022-09-23T12:46:31.219Z,100865.22
2022-09-23T12:49:04.123Z,100882.19
2022-09-23T12:51:36.642Z,100872.88
2022-09-23T12:54:22.329Z,100862.03
2022-09-23T12:56:53.553Z,100875.38
2022-09-23T12:59:30.862Z,100854.78
2022-09-23T13:02:24.696Z,100858.34
2022-09-23T13:05:22.043Z,100854.00
2022-09-23T13:08:05.223Z,100856.06
2022-09-23T13:10:49.418Z,100860.50
2022-09-23T13:13:38.467Z,100853.75
2022-09-23T13:16:20.925Z,100858.47
2022-09-23T13:18:56.386Z,100865.09
2022-09-23T13:21:42.688Z,100848.47
2022-09-23T13:24:19.279Z,100841.28
2022-09-23T13:27:10.783Z,100844.72
2022-09-23T13:29:42.242Z,100846.00
2022-09-23T13:32:17.783Z,100847.84
2022-09-23T13:35:02.020Z,100842.09
2022-09-23T13:37:45.457Z,100836.03
2022-09-23T13:40:23.859Z,100849.06
2022-09-23T13:43:03.158Z,100821.47
2022-09-23T13:45:42.938Z,100829.41
2022-09-23T13:48:15.529Z,100823.22
2022-09-23T13:50:53.243Z,100835.28
2022-09-23T13:53:29.751Z,100841.34
2022-09-23T13:56:13.353Z,100828.78
2022-09-23T13:58:44.625Z,100834.09
2022-09-23T14:01:36.028Z,100821.06
2022-09-23T14:04:23.158Z,100811.72
2022-09-23T14:06:55.310Z,100821.00
2022-09-23T14:09:29.228Z,100801.91
2022-09-23T14:12:02.016Z,100809.16
2022-09-23T14:14:37.048Z,100804.81
2022-09-23T14:17:10.119Z,100793.53
2022-09-23T14:19:42.352Z,100801.94
2022-09-23T14:22:29.983Z,100796.06
2022-09-23T14:25:03.268Z,100796.56
2022-09-23T14:27:36.364Z,100799.72
2022-09-23T14:30:15.538Z,100784.66
2022-09-23T14:32:50.007Z,100793.25
2022-09-23T14:35:27.463Z,100783.34
2022-09-23T14:38:17.427Z,100794.44
2022-09-23T14:41:15.696Z,100788.84
2022-09-23T14:43:50.633Z,100786.50
2022-09-23T14:46:23.836Z,100792.38
2022-09-23T14:49:10.341Z,100787.25
2022-09-23T14:51:53.820Z,100789.28
2022-09-23T14:54:40.159Z,100787.81
2022-09-23T14:57:25.928Z,100787.31
2022-09-23T15:00:09.243Z,100784.19
2022-09-23T15:02:57.229Z,100778.97
2022-09-23T15:05:44.278Z,100779.25
2022-09-23T15:08:21.828Z,100775.97
2022-09-23T15:10:54.079Z,100763.19
2022-09-23T15:13:31.846Z,100766.69
2022-09-23T15:16:04.692Z,100777.66
2022-09-23T15:18:38.185Z,100764.25
2022-09-23T15:21:13.443Z,100766.94
2022-09-23T15:23:49.021Z,100763.38
2022-09-23T15:26:52.370Z,100766.94
2022-09-23T15:29:26.063Z,100766.34
2022-09-23T15:31:58.298Z,100768.50
2022-09-23T15:34:30.831Z,100753.81
2022-09-23T15:37:02.439Z,100759.19
2022-09-23T15:39:36.286Z,100759.47
2022-09-23T15:42:10.123Z,100753.75
2022-09-23T15:44:41.424Z,100767.03
2022-09-23T15:47:18.623Z,100757.56
2022-09-23T15:49:49.931Z,100763.31
2022-09-23T15:52:22.628Z,100764.69
2022-09-23T15:54:53.920Z,100757.72
2022-09-23T15:57:25.940Z,100759.03
2022-09-23T15:59:58.431Z,100754.94
2022-09-23T16:02:32.331Z,100751.75
2022-09-23T16:05:05.746Z,100747.72
2022-09-23T16:07:37.056Z,100750.59
2022-09-23T16:10:08.397Z,100755.47
2022-09-23T16:12:39.945Z,100747.88
2022-09-23T16:15:17.830Z,100736.69
2022-09-23T16:17:53.175Z,100738.00
2022-09-23T16:20:26.214Z,100722.81
2022-09-23T16:23:00.411Z,100733.56
2022-09-23T16:25:36.425Z,100731.47
2022-09-23T16:28:07.783Z,100740.03
2022-09-23T16:30:39.037Z,100739.81
2022-09-23T16:33:10.305Z,100736.09
2022-09-23T16:35:41.568Z,100740.75
2022-09-23T16:38:14.557Z,100738.56
2022-09-23T16:40:47.315Z,100737.28
2022-09-23T16:43:19.492Z,100735.25
2022-09-23T16:45:50.843Z,100741.81
2022-09-23T16:48:22.790Z,100744.06
2022-09-23T16:50:54.043Z,100740.88
2022-09-23T16:53:28.924Z,100731.38
2022-09-23T16:56:09.435Z,100734.38
2022-09-23T16:58:40.877Z,100748.97
2022-09-23T17:01:38.665Z,100718.50
2022-09-23T17:04:10.982Z,100730.97
2022-09-23T17:06:49.972Z,100735.84
2022-09-23T17:09:24.547Z,100736.28
2022-09-23T17:12:13.695Z,100722.56
2022-09-23T17:14:44.958Z,100739.84
2022-09-23T17:17:16.250Z,100738.59
2022-09-23T17:19:47.529Z,100734.59
2022-09-23T17:22:18.871Z,100739.50
2022-09-23T17:24:50.213Z,100741.81
2022-09-23T17:27:21.533Z,100724.66
2022-09-23T17:29:52.823Z,100734.63
2022-09-23T17:32:24.502Z,100737.53
2022-09-23T17:34:55.750Z,100735.25
2022-09-23T17:37:26.997Z,100735.38
2022-09-23T17:39:58.986Z,100711.19
2022-09-23T17:42:30.608Z,100726.38
2022-09-23T17:45:02.102Z,100735.63
2022-09-23T17:47:33.635Z,100736.00
2022-09-23T17:50:06.001Z,100733.66
2022-09-23T17:52:37.253Z,100710.13
2022-09-23T17:55:08.847Z,100728.53
2022-09-23T17:57:40.278Z,100728.66
2022-09-23T18:00:12.269Z,100719.22
2022-09-23T18:02:43.552Z,100732.41
2022-09-23T18:05:14.893Z,100742.25
2022-09-23T18:07:46.145Z,100741.38
2022-09-23T18:10:17.386Z,100727.38
2022-09-23T18:12:48.733Z,100740.50
2022-09-23T18:15:20.233Z,100735.41
2022-09-23T18:17:51.565Z,100737.03
2022-09-23T18:20:22.843Z,100732.78
2022-09-23T18:22:54.125Z,100741.50
2022-09-23T18:25:38.537Z,100752.22
2022-09-23T18:28:11.135Z,100752.28
2022-09-23T18:30:55.250Z,100741.63
2022-09-23T18:33:26.637Z,100740.94
2022-09-23T18:36:01.403Z,100742.88
2022-09-23T18:38:33.142Z,100736.97
2022-09-23T18:41:04.670Z,100728.59
2022-09-23T18:43:41.314Z,100738.38
2022-09-23T18:46:17.265Z,100732.41
2022-09-23T18:49:07.970Z,100728.16
2022-09-23T18:51:51.727Z,100727.47
2022-09-23T18:54:25.158Z,100736.59
2022-09-23T18:56:56.695Z,100737.69
2022-09-23T18:59:29.689Z,100735.19
2022-09-23T19:02:01.168Z,100734.44
2022-09-23T19:04:32.784Z,100734.56
2022-09-23T19:07:04.105Z,100729.56
2022-09-23T19:09:35.427Z,100736.53
2022-09-23T19:12:06.674Z,100730.44
2022-09-23T19:14:37.951Z,100732.22
2022-09-23T19:17:10.981Z,100709.44
2022-09-23T19:19:42.262Z,100728.16
2022-09-23T19:22:13.669Z,100731.13
2022-09-23T19:24:45.286Z,100722.34
2022-09-23T19:27:16.558Z,100739.97
2022-09-23T19:29:47.957Z,100737.34
2022-09-23T19:32:19.272Z,100728.50
2022-09-23T19:34:50.509Z,100711.69
2022-09-23T19:37:22.422Z,100727.41
2022-09-23T19:39:53.751Z,100724.66
2022-09-23T19:42:27.555Z,100720.25
2022-09-23T19:44:58.802Z,100714.19
2022-09-23T19:47:30.187Z,100720.19
2022-09-23T19:50:01.512Z,100721.94
2022-09-23T19:52:32.767Z,100713.97
2022-09-23T19:55:04.504Z,100706.94
2022-09-23T19:57:35.754Z,100706.81
2022-09-23T20:00:07.896Z,100701.53
2022-09-23T20:02:39.165Z,100705.25
2022-09-23T20:05:12.144Z,100699.16
2022-09-23T20:07:43.495Z,100697.63
2022-09-23T20:10:15.328Z,100703.72
2022-09-23T20:12:46.632Z,100691.56
2022-09-23T20:15:18.530Z,100684.50
2022-09-23T20:17:51.177Z,100698.63
2022-09-23T20:20:22.409Z,100687.31
2022-09-23T20:22:55.042Z,100690.88
2022-09-23T20:25:26.299Z,100687.38
2022-09-23T20:27:57.553Z,100685.69
2022-09-23T20:30:29.259Z,100678.72
2022-09-23T20:33:00.981Z,100682.31
2022-09-23T20:35:33.064Z,100673.47
2022-09-23T20:38:08.005Z,100675.41
2022-09-23T20:40:39.581Z,100675.44
2022-09-23T20:43:10.953Z,100670.31
2022-09-23T20:45:49.911Z,100669.41
2022-09-23T20:48:23.539Z,100671.31
2022-09-23T20:51:02.031Z,100671.38
2022-09-23T20:53:34.925Z,100674.09
2022-09-23T20:56:06.310Z,100665.19
2022-09-23T20:58:37.668Z,100658.34
2022-09-23T21:01:10.602Z,100667.06
2022-09-23T21:03:44.964Z,100658.16
2022-09-23T21:06:18.762Z,100653.69
2022-09-23T21:08:52.566Z,100653.69
2022-09-23T21:11:24.305Z,100651.13
2022-09-23T21:13:56.466Z,100662.63
2022-09-23T21:16:28.053Z,100647.59
2022-09-23T21:18:59.599Z,100651.19
2022-09-23T21:21:31.025Z,100652.06
2022-09-23T21:24:24.509Z,100637.28
2022-09-23T21:26:53.629Z,100650.47
2022-09-23T21:29:25.043Z,100639.16
2022-09-23T21:31:57.171Z,100638.97
2022-09-23T21:34:29.929Z,100652.28
2022-09-23T21:37:01.881Z,100641.72
2022-09-23T21:39:33.240Z,100639.19
2022-09-23T21:42:05.514Z,100655.00
2022-09-23T21:44:36.761Z,100653.25
2022-09-23T21:47:08.050Z,100648.78
2022-09-23T21:49:39.342Z,100649.66
2022-09-23T21:52:10.601Z,100654.13
2022-09-23T21:54:41.971Z,100654.13
2022-09-23T21:57:13.818Z,100655.88
2022-09-23T21:59:45.055Z,100646.41
2022-09-23T22:02:17.200Z,100656.81
2022-09-23T22:04:48.478Z,100648.09
2022-09-23T22:07:20.056Z,100653.25
2022-09-23T22:09:51.346Z,100621.94
2022-09-23T22:12:23.375Z,100663.06
2022-09-23T22:14:54.701Z,100655.22
2022-09-23T22:17:25.957Z,100660.63
2022-09-23T22:19:58.369Z,100652.59
2022-09-23T22:22:29.621Z,100662.53
2022-09-23T22:25:00.887Z,100647.72
2022-09-23T22:27:32.133Z,100658.31
2022-09-23T22:30:22.162Z,100656.63
2022-09-23T22:32:55.273Z,100658.50
2022-09-23T22:35:26.736Z,100657.69
2022-09-23T22:38:00.395Z,100655.94
2022-09-23T22:40:31.715Z,100658.72
2022-09-23T22:43:03.059Z,100664.06
2022-09-23T22:45:34.809Z,100652.53
2022-09-23T22:48:06.049Z,100657.88
2022-09-23T22:50:39.590Z,100649.84
2022-09-23T22:53:10.956Z,100658.78
2022-09-23T22:55:42.638Z,100655.25
2022-09-23T22:58:31.144Z,100649.03
2022-09-23T23:01:03.716Z,100644.63
2022-09-23T23:03:35.462Z,100639.50
2022-09-23T23:06:08.266Z,100645.59
2022-09-23T23:08:39.945Z,100645.75
2022-09-23T23:11:11.614Z,100634.41
2022-09-23T23:13:43.352Z,100641.34
2022-09-23T23:16:15.439Z,100648.53
2022-09-23T23:18:47.590Z,100636.22
2022-09-23T23:21:20.197Z,100637.03
2022-09-23T23:23:52.825Z,100630.81
2022-09-23T23:26:27.081Z,100629.13
2022-09-23T23:28:58.970Z,100616.97
2022-09-23T23:31:32.006Z,100621.44
2022-09-23T23:34:03.654Z,100633.81
2022-09-23T23:36:35.012Z,100629.34
2022-09-23T23:39:06.336Z,100632.88
2022-09-23T23:41:39.416Z,100622.34
2022-09-23T23:44:12.297Z,100634.63
2022-09-23T23:46:43.613Z,100639.13
2022-09-23T23:49:15.241Z,100644.69
2022-09-23T23:51:47.730Z,100643.91
2022-09-23T23:54:19.006Z,100644.97
2022-09-23T23:56:50.354Z,100646.88
2022-09-23T23:59:21.774Z,100646.97
